Station: EBSP - 22/02/2019 14:51Z (il y a 15 minutes)
EBSP 221450Z AUTO 06003KT 030V110 9999 // BKN011/// BKN017/// 10/07 Q1035
Vent du 060º - 3 kt (vent de direction variable de 030º à 110º)
Visibilité > 10 km
Ciel 75% couvert à 1100 pieds - Ciel 75% couvert à 1700 pieds
Température: +10ºC - Point de rosée: +07ºC - QNH: 1035 hPa